createdAt,value
2023-02-11T00:02:57.792Z,2.65
2023-02-11T00:06:59.377Z,2.70
2023-02-11T00:11:01.445Z,2.76
2023-02-11T00:15:04.141Z,2.78
2023-02-11T00:19:06.722Z,2.79
2023-02-11T00:23:09.003Z,2.82
2023-02-11T00:27:10.550Z,2.84
2023-02-11T00:31:13.480Z,2.78
2023-02-11T00:35:15.410Z,2.72
2023-02-11T00:39:17.020Z,2.69
2023-02-11T00:43:18.572Z,2.69
2023-02-11T00:47:20.332Z,2.76
2023-02-11T00:51:22.012Z,2.85
2023-02-11T00:55:23.560Z,2.98
2023-02-11T00:59:25.159Z,3.12
2023-02-11T01:03:26.893Z,3.20
2023-02-11T01:07:36.703Z,3.24
2023-02-11T01:11:38.357Z,3.31
2023-02-11T01:15:39.952Z,3.37
2023-02-11T01:19:41.657Z,3.42
2023-02-11T01:23:43.188Z,3.42
2023-02-11T01:27:46.598Z,3.48
2023-02-11T01:31:48.334Z,3.56
2023-02-11T01:35:50.439Z,3.61
2023-02-11T01:39:52.229Z,3.64
2023-02-11T01:43:53.781Z,3.67
2023-02-11T01:47:55.308Z,3.69
2023-02-11T01:52:26.409Z,3.74
2023-02-11T01:56:47.854Z,3.76
2023-02-11T02:00:50.433Z,3.73
2023-02-11T02:05:15.133Z,3.74
2023-02-11T02:09:28.089Z,3.75
2023-02-11T02:13:32.526Z,3.72
2023-02-11T02:17:47.515Z,3.72
2023-02-11T02:22:34.872Z,3.75
2023-02-11T02:27:10.604Z,3.77
2023-02-11T02:31:59.096Z,3.74
2023-02-11T02:36:18.244Z,3.61
2023-02-11T02:40:35.198Z,3.56
2023-02-11T02:44:36.791Z,3.46
2023-02-11T02:48:38.716Z,3.45
2023-02-11T02:52:43.035Z,3.40
2023-02-11T02:57:18.897Z,3.42
2023-02-11T03:01:57.868Z,3.49
2023-02-11T03:06:19.480Z,3.53
2023-02-11T03:10:30.020Z,3.58
2023-02-11T03:14:33.034Z,3.57
2023-02-11T03:18:36.888Z,3.61
2023-02-11T03:22:46.386Z,3.65
2023-02-11T03:26:53.944Z,3.64
2023-02-11T03:31:07.634Z,3.59
2023-02-11T03:35:20.194Z,3.59
2023-02-11T03:39:27.451Z,3.58
2023-02-11T03:43:35.283Z,3.56
2023-02-11T03:47:39.887Z,3.55
2023-02-11T03:51:41.877Z,3.50
2023-02-11T03:55:44.604Z,3.41
2023-02-11T03:59:58.615Z,3.38
2023-02-11T04:04:00.166Z,3.30
2023-02-11T04:08:01.862Z,3.32
2023-02-11T04:12:03.596Z,3.33
2023-02-11T04:16:05.394Z,3.33
2023-02-11T04:20:07.654Z,3.33
2023-02-11T04:24:09.208Z,3.30
2023-02-11T04:28:10.812Z,3.29
2023-02-11T04:32:12.476Z,3.26
2023-02-11T04:36:14.067Z,3.28
2023-02-11T04:40:15.707Z,3.38
2023-02-11T04:44:17.315Z,3.46
2023-02-11T04:48:18.850Z,3.51
2023-02-11T04:52:20.470Z,3.54
2023-02-11T04:56:22.027Z,3.62
2023-02-11T05:00:23.565Z,3.67
2023-02-11T05:04:25.154Z,3.68
2023-02-11T05:08:26.761Z,3.68
2023-02-11T05:12:28.435Z,3.69
2023-02-11T05:16:30.011Z,3.74
2023-02-11T05:20:31.632Z,3.70
2023-02-11T05:24:33.563Z,3.71
2023-02-11T05:28:35.689Z,3.70
2023-02-11T05:32:37.288Z,3.62
2023-02-11T05:36:38.903Z,3.57
2023-02-11T05:40:40.985Z,3.60
2023-02-11T05:44:42.525Z,3.63
2023-02-11T05:48:44.163Z,3.69
2023-02-11T05:52:45.740Z,3.73
2023-02-11T05:56:47.536Z,3.74
2023-02-11T06:00:49.106Z,3.77
2023-02-11T06:04:50.670Z,3.73
2023-02-11T06:08:52.273Z,3.76
2023-02-11T06:12:53.877Z,3.74
2023-02-11T06:16:55.494Z,3.75
2023-02-11T06:20:57.125Z,3.77
2023-02-11T06:25:01.649Z,3.81
2023-02-11T06:29:04.859Z,3.81
2023-02-11T06:33:06.426Z,3.73
2023-02-11T06:37:07.969Z,3.71
2023-02-11T06:41:11.567Z,3.72
2023-02-11T06:45:13.505Z,3.70
2023-02-11T06:49:15.759Z,3.65
2023-02-11T06:53:17.756Z,3.62
2023-02-11T06:57:20.113Z,3.62
2023-02-11T07:01:22.647Z,3.63
2023-02-11T07:05:24.254Z,3.67
2023-02-11T07:09:25.869Z,3.62
2023-02-11T07:13:27.564Z,3.63
2023-02-11T07:17:29.136Z,3.57
2023-02-11T07:21:31.879Z,3.55
2023-02-11T07:25:33.907Z,3.60
2023-02-11T07:29:35.509Z,3.74
2023-02-11T07:33:38.004Z,3.85
2023-02-11T07:37:39.578Z,3.94
2023-02-11T07:41:41.309Z,3.97
2023-02-11T07:45:42.921Z,4.00
2023-02-11T07:49:45.478Z,4.13
2023-02-11T07:53:48.575Z,4.21
2023-02-11T07:57:50.857Z,4.21
2023-02-11T08:01:52.498Z,4.24
2023-02-11T08:05:54.165Z,4.35
2023-02-11T08:09:55.861Z,4.48
2023-02-11T08:13:57.456Z,4.52
2023-02-11T08:17:59.112Z,4.61
2023-02-11T08:22:01.489Z,4.71
2023-02-11T08:26:05.168Z,4.71
2023-02-11T08:30:07.310Z,4.73
2023-02-11T08:34:11.535Z,4.80
2023-02-11T08:38:13.252Z,4.89
2023-02-11T08:42:18.961Z,5.03
2023-02-11T08:46:20.769Z,5.06
2023-02-11T08:50:22.399Z,5.07
2023-02-11T08:54:24.209Z,5.08
2023-02-11T08:58:26.942Z,5.27
2023-02-11T09:02:28.702Z,5.51
2023-02-11T09:06:30.611Z,5.74
2023-02-11T09:10:32.444Z,5.93
2023-02-11T09:14:34.097Z,6.00
2023-02-11T09:18:35.728Z,6.00
2023-02-11T09:22:37.302Z,6.16
2023-02-11T09:26:43.521Z,6.23
2023-02-11T09:30:45.278Z,6.43
2023-02-11T09:34:47.007Z,6.49
2023-02-11T09:38:49.334Z,6.64
2023-02-11T09:43:01.766Z,6.82
2023-02-11T09:47:15.790Z,6.96
2023-02-11T09:51:26.626Z,7.01
2023-02-11T09:55:39.500Z,7.17
2023-02-11T09:59:41.126Z,7.10
2023-02-11T10:03:54.250Z,6.99
2023-02-11T10:08:10.022Z,7.08
2023-02-11T10:12:32.852Z,7.11
2023-02-11T10:16:42.314Z,7.23
2023-02-11T10:21:03.875Z,7.30
2023-02-11T10:25:46.537Z,7.34
2023-02-11T10:30:03.652Z,7.48
2023-02-11T10:34:11.958Z,7.60
2023-02-11T10:38:13.623Z,7.82
2023-02-11T10:42:15.865Z,8.12
2023-02-11T10:46:22.258Z,8.33
2023-02-11T10:50:35.526Z,8.49
2023-02-11T10:54:37.077Z,8.34
2023-02-11T10:58:45.985Z,8.22
2023-02-11T11:02:55.766Z,8.19
2023-02-11T11:07:09.877Z,8.26
2023-02-11T11:11:17.000Z,8.45
2023-02-11T11:15:24.712Z,8.49
2023-02-11T11:19:26.287Z,8.49
2023-02-11T11:23:30.299Z,8.56
2023-02-11T11:27:32.513Z,8.64
2023-02-11T11:31:45.522Z,8.85
2023-02-11T11:35:56.980Z,8.81
2023-02-11T11:40:08.305Z,8.80
2023-02-11T11:44:33.962Z,8.71
2023-02-11T11:48:39.375Z,8.71
2023-02-11T11:52:55.151Z,8.78
2023-02-11T11:57:03.334Z,8.78
2023-02-11T12:01:26.363Z,8.78
2023-02-11T12:05:42.501Z,8.79
2023-02-11T12:10:08.491Z,8.75
2023-02-11T12:14:12.812Z,8.69
2023-02-11T12:18:38.735Z,8.52
2023-02-11T12:22:46.413Z,8.41
2023-02-11T12:26:56.858Z,8.33
2023-02-11T12:31:01.468Z,8.46
2023-02-11T12:35:28.576Z,8.61
2023-02-11T12:39:54.468Z,8.73
2023-02-11T12:43:56.178Z,8.83
2023-02-11T12:48:30.777Z,8.69
2023-02-11T12:52:41.199Z,8.83
2023-02-11T12:57:03.545Z,8.81
2023-02-11T13:01:10.788Z,8.76
2023-02-11T13:05:29.629Z,8.87
2023-02-11T13:09:55.381Z,8.87
2023-02-11T13:14:21.936Z,8.83
2023-02-11T13:19:05.032Z,8.85
2023-02-11T13:23:09.459Z,8.78
2023-02-11T13:27:21.126Z,8.65
2023-02-11T13:31:26.960Z,8.57
2023-02-11T13:35:37.083Z,8.55
2023-02-11T13:39:39.438Z,8.55
2023-02-11T13:43:41.187Z,8.52
2023-02-11T13:47:42.998Z,8.50
2023-02-11T13:51:45.300Z,8.53
2023-02-11T13:55:49.153Z,8.50
2023-02-11T13:59:52.392Z,8.54
2023-02-11T14:04:46.872Z,8.45
2023-02-11T14:08:59.545Z,8.45
2023-02-11T14:13:23.225Z,8.39
2023-02-11T14:17:33.116Z,8.37
2023-02-11T14:21:38.112Z,8.35
2023-02-11T14:25:42.993Z,8.28
2023-02-11T14:30:00.423Z,8.27
2023-02-11T14:34:17.424Z,8.18
2023-02-11T14:38:43.265Z,8.15
2023-02-11T14:42:45.421Z,8.11
2023-02-11T14:46:49.948Z,8.06
2023-02-11T14:50:54.739Z,8.05
2023-02-11T14:55:13.579Z,8.07
2023-02-11T14:59:21.375Z,8.08
2023-02-11T15:03:30.630Z,8.03
2023-02-11T15:07:32.420Z,7.96
2023-02-11T15:11:39.870Z,7.95
2023-02-11T15:15:41.745Z,7.94
2023-02-11T15:19:50.201Z,7.94
2023-02-11T15:24:00.417Z,7.90
2023-02-11T15:28:10.614Z,7.89
2023-02-11T15:32:18.126Z,7.89
2023-02-11T15:36:27.911Z,7.84
2023-02-11T15:40:34.528Z,7.86
2023-02-11T15:44:38.176Z,7.86
2023-02-11T15:48:47.231Z,7.84
2023-02-11T15:52:50.045Z,7.86
2023-02-11T15:56:52.466Z,7.77
2023-02-11T16:00:59.750Z,7.78
2023-02-11T16:05:05.348Z,7.78
2023-02-11T16:09:12.793Z,7.72
2023-02-11T16:13:14.325Z,7.66
2023-02-11T16:17:18.581Z,7.61
2023-02-11T16:21:22.151Z,7.59
2023-02-11T16:25:24.133Z,7.57
2023-02-11T16:29:32.170Z,7.55
2023-02-11T16:33:33.746Z,7.56
2023-02-11T16:37:38.143Z,7.53
2023-02-11T16:41:40.548Z,7.50
2023-02-11T16:45:42.196Z,7.52
2023-02-11T16:49:43.913Z,7.53
2023-02-11T16:53:45.602Z,7.51
2023-02-11T16:57:47.155Z,7.53
2023-02-11T17:01:51.422Z,7.56
2023-02-11T17:05:55.928Z,7.57
2023-02-11T17:09:57.857Z,7.52
2023-02-11T17:13:59.425Z,7.55
2023-02-11T17:18:01.055Z,7.52
2023-02-11T17:22:03.466Z,7.56
2023-02-11T17:26:06.394Z,7.56
2023-02-11T17:30:09.390Z,7.54
2023-02-11T17:34:11.785Z,7.54
2023-02-11T17:38:13.383Z,7.55
2023-02-11T17:42:14.956Z,7.53
2023-02-11T17:46:16.952Z,7.53
2023-02-11T17:50:18.802Z,7.56
2023-02-11T17:54:21.035Z,7.58
2023-02-11T17:58:23.501Z,7.60
2023-02-11T18:02:25.178Z,7.57
2023-02-11T18:06:26.896Z,7.54
2023-02-11T18:10:28.602Z,7.51
2023-02-11T18:14:30.135Z,7.51
2023-02-11T18:18:31.919Z,7.53
2023-02-11T18:22:39.153Z,7.53
2023-02-11T18:26:41.719Z,7.54
2023-02-11T18:30:43.411Z,7.56
2023-02-11T18:34:45.061Z,7.53
2023-02-11T18:38:46.823Z,7.56
2023-02-11T18:42:48.463Z,7.56
2023-02-11T18:46:50.488Z,7.58
2023-02-11T18:50:52.118Z,7.60
2023-02-11T18:54:53.642Z,7.59
2023-02-11T18:58:56.672Z,7.60
2023-02-11T19:02:58.853Z,7.61
2023-02-11T19:07:03.202Z,7.61
2023-02-11T19:11:05.238Z,7.62
2023-02-11T19:15:08.485Z,7.61
2023-02-11T19:19:10.291Z,7.63
2023-02-11T19:23:11.993Z,7.62
2023-02-11T19:27:13.543Z,7.64
2023-02-11T19:31:15.222Z,7.65
2023-02-11T19:35:16.937Z,7.67
2023-02-11T19:39:18.650Z,7.67
2023-02-11T19:43:20.222Z,7.68
2023-02-11T19:47:27.666Z,7.69
2023-02-11T19:51:30.075Z,7.68
2023-02-11T19:55:34.833Z,7.69
2023-02-11T19:59:36.850Z,7.71
2023-02-11T20:03:42.140Z,7.73
2023-02-11T20:07:44.254Z,7.72
2023-02-11T20:11:45.966Z,7.75
2023-02-11T20:15:47.691Z,7.76
2023-02-11T20:19:49.399Z,7.76
2023-02-11T20:23:52.219Z,7.74
2023-02-11T20:27:54.539Z,7.69
2023-02-11T20:31:56.227Z,7.71
2023-02-11T20:36:00.690Z,7.70
2023-02-11T20:40:02.282Z,7.68
2023-02-11T20:44:07.281Z,7.69
2023-02-11T20:48:08.866Z,7.66
2023-02-11T20:52:10.555Z,7.65
2023-02-11T20:56:12.439Z,7.61
2023-02-11T21:00:14.379Z,7.52
2023-02-11T21:04:18.977Z,7.50
2023-02-11T21:08:20.577Z,7.46
2023-02-11T21:12:22.432Z,7.44
2023-02-11T21:16:24.308Z,7.45
2023-02-11T21:20:25.962Z,7.41
2023-02-11T21:24:27.909Z,7.35
2023-02-11T21:28:29.704Z,7.33
2023-02-11T21:32:31.310Z,7.32
2023-02-11T21:36:33.532Z,7.28
2023-02-11T21:40:35.147Z,7.24
2023-02-11T21:44:36.791Z,7.23
2023-02-11T21:48:38.578Z,7.22
2023-02-11T21:52:40.138Z,7.17
2023-02-11T21:56:41.782Z,7.10
2023-02-11T22:00:43.451Z,7.02
2023-02-11T22:04:45.169Z,7.01
2023-02-11T22:08:48.483Z,7.06
2023-02-11T22:12:52.446Z,7.11
2023-02-11T22:16:54.081Z,7.09
2023-02-11T22:21:16.893Z,7.11
2023-02-11T22:25:18.661Z,7.12
2023-02-11T22:29:20.217Z,7.13
2023-02-11T22:33:24.078Z,7.17
2023-02-11T22:37:25.653Z,7.20
2023-02-11T22:41:27.314Z,7.20
2023-02-11T22:45:28.979Z,7.24
2023-02-11T22:49:32.538Z,7.23
2023-02-11T22:53:34.907Z,7.23
2023-02-11T22:57:36.458Z,7.22
2023-02-11T23:01:38.070Z,7.22
2023-02-11T23:05:42.710Z,7.22
2023-02-11T23:09:44.499Z,7.24
2023-02-11T23:13:47.594Z,7.26
2023-02-11T23:17:49.165Z,7.27
2023-02-11T23:21:52.186Z,7.28
2023-02-11T23:25:53.930Z,7.28
2023-02-11T23:29:56.709Z,7.28
2023-02-11T23:33:58.267Z,7.27
2023-02-11T23:37:59.840Z,7.27
2023-02-11T23:42:01.613Z,7.28
2023-02-11T23:46:03.623Z,7.31
2023-02-11T23:50:07.307Z,7.30
2023-02-11T23:54:14.584Z,7.31
2023-02-11T23:58:16.276Z,7.28
